Ursel Air Base

EBUL · Oost-Vlaanderen, Flanders, Belgio

Storia di METAR EBUL · Ursel Air Base

Di seguito sono riportati i METAR degli ultimi giorni. Seleziona un anno per sfogliare i METAR più vecchi, dall'anno 2007 in poi.

27 febbraio 2024

Tempo Codice Tempo meteorologico Temp. Vista Base nuvolosa Vento METAR/SPECI
22:55
V
6 °C 10 km+ - 210° 210° 7 kt METAR EHFS 272155Z AUTO 21007KT 9999 NSC 06/03 Q1020
22:25
V
6 °C 10 km+ - 210° 210° 7 kt METAR EHFS 272125Z AUTO 21007KT 9999 NSC 06/03 Q1020
21:55
V
6 °C 10 km+ - 220° 220° 7 kt METAR EHFS 272055Z AUTO 22007KT 9999 NSC 06/03 Q1020
21:25
V
6 °C 10 km+ - 250° 250° 7 kt METAR EHFS 272025Z AUTO 25007KT 9999 NSC 06/02 Q1020
20:55
V
6 °C 10 km+ - 260° 260° 3 kt METAR EHFS 271955Z AUTO 26003KT 9999 NSC 06/02 Q1020
20:25
V
6 °C 10 km+ - 300° 300° 1 kt METAR EHFS 271925Z AUTO 30001KT 9999 NSC 06/02 Q1019
19:55
V
6 °C 10 km+ - 300° 300° 2 kt METAR EHFS 271855Z AUTO 30002KT 9999 NSC 06/02 Q1019
19:25
V
5 °C 10 km+ - 310° 310° 1 kt METAR EHFS 271825Z AUTO 31001KT 9999 NSC 05/01 Q1019
18:55
V
6 °C 10 km+ - Var Var 2 kt METAR EHFS 271755Z AUTO VRB02KT 9999 -RA NSC 06/02 Q1019
18:25
V
6 °C 10 km+ - 330° 330° 3 kt METAR EHFS 271725Z AUTO 33003KT 9999 NSC 06/01 Q1019
17:55
V
6 °C 10 km+ - 320° 320° 6 kt METAR EHFS 271655Z AUTO 32006KT 290V350 9999 ///////// 06/02 Q1019
17:25
V
7 °C 10 km+ - 320° 320° 9 kt METAR EHFS 271625Z AUTO 32009KT 280V350 9999 NSC 07/02 Q1018
16:55
V
7 °C 10 km+ - 330° 330° 6 kt METAR EHFS 271555Z AUTO 33006KT 290V020 9999 NSC 07/02 Q1018
16:25
V
7 °C 10 km+ - 340° 340° 6 kt METAR EHFS 271525Z AUTO 34006KT 300V010 9999 NSC 07/02 Q1018
15:55
V
8 °C 10 km+ - 320° 320° 7 kt METAR EHFS 271455Z AUTO 32007KT 280V360 9999 NSC 08/02 Q1018
15:25
V
8 °C 10 km+ - 330° 330° 7 kt METAR EHFS 271425Z AUTO 33007KT 280V010 9999 NSC 08/02 Q1018
14:55
V
8 °C 10 km+ - 350° 350° 9 kt METAR EHFS 271355Z AUTO 35009KT 260V030 9999 FEW023/// 08/02 Q1019
14:25
V
9 °C 10 km+ - 350° 350° 8 kt METAR EHFS 271325Z AUTO 35008KT 300V030 9999 NCD 09/03 Q1019
13:55
V
8 °C 10 km+ - 340° 340° 7 kt METAR EHFS 271255Z AUTO 34007KT 290V040 9999 NCD 08/02 Q1019
13:25
V
8 °C 10 km+ - 350° 350° 6 kt METAR EHFS 271225Z AUTO 35006KT 300V030 9999 NSC 08/03 Q1019
12:55
V
8 °C 10 km+ - 010° 010° 5 kt METAR EHFS 271155Z AUTO 01005KT 320V060 9999 NSC 08/03 Q1019
12:25
V
8 °C 10 km+ - 010° 010° 8 kt METAR EHFS 271125Z AUTO 01008KT 340V050 9999 NSC 08/03 Q1019
11:55
V
7 °C 10 km+ - 040° 040° 9 kt METAR EHFS 271055Z AUTO 04009KT 350V060 9999 NSC 07/03 Q1019
11:25
V
7 °C 10 km+ - 020° 020° 12 kt METAR EHFS 271025Z AUTO 02012KT 350V060 9999 NCD 07/02 Q1019
10:55
V
7 °C 10 km+ - 020° 020° 12 kt METAR EHFS 270955Z AUTO 02012KT 350V050 9999 NCD 07/02 Q1019
10:25
V
6 °C 10 km+ - 020° 020° 12 kt METAR EHFS 270925Z AUTO 02012KT 340V050 9999 NCD 06/02 Q1019
09:55
V
6 °C 10 km+ - 030° 030° 13 kt METAR EHFS 270855Z AUTO 03013KT 350V050 9999 NCD 06/02 Q1019
09:25
V
6 °C 10 km+ - 020° 020° 13 kt METAR EHFS 270825Z AUTO 02013KT 340V050 9999 NCD 06/02 Q1019
08:55
V
5 °C 10 km+ - 010° 010° 10 kt METAR EHFS 270755Z AUTO 01010KT 340V050 9999 NCD 05/02 Q1019
08:25
V
5 °C 10 km+ - 010° 010° 11 kt METAR EHFS 270725Z AUTO 01011KT 330V040 9999 NCD 05/02 Q1019
07:55
V
5 °C 10 km+ - 010° 010° 12 kt METAR EHFS 270655Z AUTO 01012KT 330V050 9999 NCD 05/02 Q1018
07:25
V
5 °C 10 km+ - 010° 010° 11 kt METAR EHFS 270625Z AUTO 01011KT 340V040 9999 NCD 05/02 Q1018
06:55
V
5 °C 10 km+ - 010° 010° 13 kt METAR EHFS 270555Z AUTO 01013KT 340V040 9999 NCD 05/02 Q1018
06:25
V
5 °C 10 km+ - 360° 360° 11 kt METAR EHFS 270525Z AUTO 36011KT 330V040 9999 NCD 05/02 Q1018
05:55
V
5 °C 10 km+ - 360° 360° 13 kt METAR EHFS 270455Z AUTO 36013KT 320V030 9999 NCD 05/02 Q1018
05:25
V
5 °C 10 km+ - 360° 360° 14 kt METAR EHFS 270425Z AUTO 36014KT 330V040 9999 NCD 05/02 Q1017
04:55
V
5 °C 10 km+ - 010° 010° 15 kt METAR EHFS 270355Z AUTO 01015KT 330V040 9999 NCD 05/02 Q1017
04:25
V
5 °C 10 km+ - 010° 010° 15 kt METAR EHFS 270325Z AUTO 01015KT 340V040 9999 NCD 05/02 Q1016
03:55
V
5 °C 10 km+ - 010° 010° 17 kt METAR EHFS 270255Z AUTO 01017KT 340V040 9999 NSC 05/02 Q1016
03:25
V
5 °C 10 km+ - 360° 360° 15 kt METAR EHFS 270225Z AUTO 36015KT 330V030 9999 NSC 05/02 Q1016
02:55
V
5 °C 10 km+ - 010° 010° 14 kt METAR EHFS 270155Z AUTO 01014KT 330V040 9999 NSC 05/02 Q1016
02:25
V
5 °C 10 km+ - 010° 010° 15 kt METAR EHFS 270125Z AUTO 01015KT 320V040 9999 NSC 05/02 Q1016
01:55
V
5 °C 10 km+ - 010° 010° 14 kt METAR EHFS 270055Z AUTO 01014KT 340V040 9999 NSC 05/02 Q1016
01:25
V
5 °C 10 km+ - 010° 010° 14 kt METAR EHFS 270025Z AUTO 01014KT 340V050 9999 NSC 05/02 Q1016
00:55
V
5 °C 10 km+ - 010° 010° 17 kt METAR EHFS 262355Z AUTO 01017KT 340V050 9999 NSC 05/02 Q1016
00:25
V
5 °C 10 km+ - 010° 010° 16 kt METAR EHFS 262325Z AUTO 01016KT 330V050 9999 NSC 05/02 Q1015

26 febbraio 2024

Tempo Codice Tempo meteorologico Temp. Vista Base nuvolosa Vento METAR/SPECI
23:55
V
5 °C 10 km+ - 010° 010° 17 kt METAR EHFS 262255Z AUTO 01017KT 330V040 9999 NSC 05/02 Q1015
23:25
V
5 °C 10 km+ - 010° 010° 18 kt METAR EHFS 262225Z AUTO 01018KT 340V050 9999 NSC 05/02 Q1015
22:55
V
5 °C 10 km+ - 010° 010° 17 kt METAR EHFS 262155Z AUTO 01017KT 320V050 9999 NSC 05/02 Q1014
22:25
V
5 °C 10 km+ - 020° 020° 18 kt METAR EHFS 262125Z AUTO 02018KT 340V060 9999 NCD 05/02 Q1014
21:55
V
5 °C 10 km+ - 010° 010° 19 kt METAR EHFS 262055Z AUTO 01019KT 340V050 9999 NSC 05/02 Q1014
21:25
V
6 °C 10 km+ - 010° 010° 19 - 29 kt METAR EHFS 262025Z AUTO 01019G29KT 340V050 9999 NSC 06/02 Q1013
20:55
V
6 °C 10 km+ - 020° 020° 22 - 32 kt METAR EHFS 261955Z AUTO 02022G32KT 340V050 9999 NSC 06/02 Q1013
20:25
V
6 °C 10 km+ - 010° 010° 17 kt METAR EHFS 261925Z AUTO 01017KT 340V050 9999 FEW016/// 06/03 Q1012
19:55
V
6 °C 10 km+ - 010° 010° 18 - 28 kt METAR EHFS 261855Z AUTO 01018G28KT 330V050 9999 NSC 06/03 Q1011
19:25
V
6 °C 10 km+ - 010° 010° 20 - 30 kt METAR EHFS 261825Z AUTO 01020G30KT 340V050 9999 FEW043/// 06/03 Q1011
18:55
V
6 °C 10 km+ - 010° 010° 19 kt METAR EHFS 261755Z AUTO 01019KT 340V050 9999 FEW044/// 06/03 Q1010
18:25
V
7 °C 10 km+ - 010° 010° 22 kt METAR EHFS 261725Z AUTO 01022KT 9999 NSC 07/03 Q1009
17:55
V
7 °C 10 km+ 3.300 ft 010° 010° 17 kt METAR EHFS 261655Z AUTO 01017KT 340V040 9999 FEW021/// BKN033/// 07/03 Q1009
17:25
M
7 °C 10 km+ 2.200 ft 010° 010° 16 - 28 kt METAR EHFS 261625Z AUTO 01016G28KT 340V050 9999 FEW017/// OVC022/// 07/03 Q1008
16:55
M
7 °C 10 km+ 2.100 ft 020° 020° 17 kt METAR EHFS 261555Z AUTO 02017KT 340V050 9999 SCT017/// OVC021/// 07/03 Q1008
16:25
M
7 °C 10 km+ 1.900 ft 020° 020° 20 - 30 kt METAR EHFS 261525Z AUTO 02020G30KT 350V050 9999 -UP BKN019/// OVC023/// 07/04 Q1007 REDZUP
15:55
M
7 °C 10 km+ 2.100 ft 020° 020° 20 kt METAR EHFS 261455Z AUTO 02020KT 350V050 9999 -RA SCT017/// OVC021/// 07/04 Q1007 RERA REDZ
15:25
M
7 °C 10 km+ 1.700 ft 020° 020° 21 kt METAR EHFS 261425Z AUTO 02021KT 350V050 9999 -RA FEW014/// BKN017/// OVC020/// 07/04 Q1006 RERA REDZ
14:55
M
7 °C 10 km+ 2.000 ft 020° 020° 23 kt METAR EHFS 261355Z AUTO 02023KT 350V050 9999 DZ SCT015/// BKN020/// BKN024/// 07/04 Q1006
14:25
M
6 °C 10 km+ 1.900 ft 020° 020° 23 kt METAR EHFS 261325Z AUTO 02023KT 340V050 9999 -RA FEW013/// SCT016/// BKN019/// 06/04 Q1005
13:55
M
6 °C 10 km+ 2.000 ft 020° 020° 25 - 36 kt METAR EHFS 261255Z AUTO 02025G36KT 350V050 9999 -RADZ FEW012/// SCT015/// BKN020/// 06/04 Q1005
13:25
M
6 °C 10 km+ 2.600 ft 020° 020° 23 - 34 kt METAR EHFS 261225Z AUTO 02023G34KT 340V050 9999 -RA FEW017/// SCT022/// OVC026/// 06/04 Q1004
12:55
M
6 °C 10 km+ 1.600 ft 020° 020° 25 kt METAR EHFS 261155Z AUTO 02025KT 340V050 9999 -RA FEW013/// BKN016/// BKN020/// 06/04 Q1004
12:25
M
6 °C 10 km+ 1.900 ft 020° 020° 22 - 32 kt METAR EHFS 261125Z AUTO 02022G32KT 330V050 9999 -SHRA FEW015/// BKN019/// OVC022/// 06/04 Q1004
11:55
M
6 °C 10 km+ 2.100 ft 010° 010° 22 - 33 kt METAR EHFS 261055Z AUTO 01022G33KT 340V050 9999 -RA FEW014/// SCT018/// BKN021/// 06/04 Q1003
11:25
M
6 °C 10 km+ 1.700 ft 020° 020° 21 - 31 kt METAR EHFS 261025Z AUTO 02021G31KT 340V060 9999 -RA FEW014/// OVC017/// 06/04 Q1003
10:55
M
6 °C 9 km 1.500 ft 030° 030° 22 - 34 kt METAR EHFS 260955Z AUTO 03022G34KT 350V060 9000 -RA BKN015/// OVC018/// 06/04 Q1002
10:25
M
6 °C 8 km 1.600 ft 030° 030° 22 - 33 kt METAR EHFS 260925Z AUTO 03022G33KT 350V060 8000 -RA SCT014/// OVC016/// 06/04 Q1002
09:55
M
6 °C 9 km 1.600 ft 030° 030° 21 kt METAR EHFS 260855Z AUTO 03021KT 350V070 9000 -RA OVC016/// 06/04 Q1001
09:25
M
6 °C 10 km+ 1.600 ft 030° 030° 21 kt METAR EHFS 260825Z AUTO 03021KT 360V060 9999 -RA BKN016/// BKN019/// OVC024/// 06/04 Q1001
08:55
M
6 °C 10 km+ 1.900 ft 030° 030° 23 - 35 kt METAR EHFS 260755Z AUTO 03023G35KT 9999 -RA SCT016/// OVC019/// 06/03 Q1000
08:25
M
6 °C 10 km+ 2.900 ft 030° 030° 25 kt METAR EHFS 260725Z AUTO 03025KT 9999 -RA FEW020/// BKN029/// OVC033/// 06/03 Q1000
07:55
M
6 °C 10 km+ 2.800 ft 030° 030° 25 kt METAR EHFS 260655Z AUTO 03025KT 360V060 9999 -RA SCT025/// BKN028/// OVC037/// 06/04 Q0999
07:25
M
6 °C 10 km+ 2.800 ft 030° 030° 23 kt METAR EHFS 260625Z AUTO 03023KT 9999 -RA BKN028/// OVC031/// 06/04 Q0999
06:55
M
6 °C 10 km+ 2.100 ft 030° 030° 21 kt METAR EHFS 260555Z AUTO 03021KT 9999 -RA BKN021/// BKN025/// OVC037/// 06/04 Q0998
06:25
M
6 °C 10 km+ 3.000 ft 030° 030° 19 kt METAR EHFS 260525Z AUTO 03019KT 9999 -RA SCT020/// BKN030/// OVC037/// 06/04 Q0998
05:55
M
6 °C 10 km+ 2.100 ft 040° 040° 19 kt METAR EHFS 260455Z AUTO 04019KT 9999 -RA FEW015/// BKN021/// OVC024/// 06/04 Q0998
05:25
M
6 °C 10 km+ 2.800 ft 040° 040° 21 kt METAR EHFS 260425Z AUTO 04021KT 9999 -RA FEW024/// BKN028/// OVC031/// 06/05 Q0997
04:55
M
6 °C 10 km+ 3.000 ft 040° 040° 19 kt METAR EHFS 260355Z AUTO 04019KT 9999 -RA FEW013/// SCT027/// BKN030/// 06/04 Q0997
04:25
M
6 °C 10 km+ 3.000 ft 050° 050° 19 kt METAR EHFS 260325Z AUTO 05019KT 010V070 9999 -RA FEW018/// SCT026/// BKN030/// 06/04 Q0997
03:55
M
7 °C 10 km+ 2.300 ft 050° 050° 18 kt METAR EHFS 260255Z AUTO 05018KT 020V080 9999 -RA BKN023/// OVC026/// 07/04 Q0996 RERA REDZ
03:25
V
7 °C 10 km+ 3.100 ft 050° 050° 19 kt METAR EHFS 260225Z AUTO 05019KT 9999 -RA SCT026/// OVC031/// 07/04 Q0996 RERA REDZ
02:55
V
7 °C 10 km+ 4.900 ft 050° 050° 17 kt METAR EHFS 260155Z AUTO 05017KT 9999 DZ FEW036/// OVC049/// 07/04 Q0996
02:25
V
7 °C 10 km+ - 050° 050° 15 kt METAR EHFS 260125Z AUTO 05015KT 9999 DZ FEW035/// 07/04 Q0996
01:55
V
7 °C 10 km+ - 050° 050° 15 kt METAR EHFS 260055Z AUTO 05015KT 020V080 9999 DZ FEW033/// 07/04 Q0996
01:25
V
7 °C 10 km+ - 050° 050° 15 kt METAR EHFS 260025Z AUTO 05015KT 9999 DZ SCT046/// 07/04 Q0996
00:55
V
7 °C 10 km+ 4.900 ft 060° 060° 15 kt METAR EHFS 252355Z AUTO 06015KT 9999 -DZ FEW040/// BKN049/// 07/03 Q0996
00:25
V
7 °C 10 km+ 4.200 ft 050° 050° 15 kt METAR EHFS 252325Z AUTO 05015KT 020V080 9999 -DZ BKN042/// BKN047/// 07/03 Q0996

25 febbraio 2024

Tempo Codice Tempo meteorologico Temp. Vista Base nuvolosa Vento METAR/SPECI
23:55
V
8 °C 10 km+ - 060° 060° 15 kt METAR EHFS 252255Z AUTO 06015KT 9999 FEW038/// 08/03 Q0996
23:25
V
8 °C 10 km+ 4.000 ft 060° 060° 17 kt METAR EHFS 252225Z AUTO 06017KT 9999 OVC040/// 08/03 Q0996
22:55
V
8 °C 10 km+ - 060° 060° 18 kt METAR EHFS 252155Z AUTO 06018KT 9999 FEW047/// 08/03 Q0996
22:25
V
8 °C 10 km+ 4.600 ft 060° 060° 16 kt METAR EHFS 252125Z AUTO 06016KT 9999 -DZ FEW035/// SCT041/// BKN046/// 08/04 Q0996
21:55
V
8 °C 10 km+ 4.100 ft 060° 060° 15 kt METAR EHFS 252055Z AUTO 06015KT 9999 BKN041/// OVC045/// 08/04 Q0996
21:25
V
8 °C 10 km+ 4.200 ft 060° 060° 14 kt METAR EHFS 252025Z AUTO 06014KT 9999 BKN042/// OVC048/// 08/04 Q0996
20:55
V
8 °C 10 km+ 3.700 ft 060° 060° 14 kt METAR EHFS 251955Z AUTO 06014KT 9999 BKN037/// OVC041/// 08/04 Q0996
20:25
V
8 °C 10 km+ 4.100 ft 060° 060° 12 kt METAR EHFS 251925Z AUTO 06012KT 040V100 9999 OVC041/// 08/04 Q0996
19:55
V
9 °C 10 km+ 4.400 ft 070° 070° 14 kt METAR EHFS 251855Z AUTO 07014KT 9999 OVC044/// 09/03 Q0996
19:25
V
9 °C 10 km+ 4.700 ft 070° 070° 14 kt METAR EHFS 251825Z AUTO 07014KT 9999 SCT043/// OVC047/// 09/04 Q0996
18:55
V
9 °C 10 km+ 4.300 ft 070° 070° 12 kt METAR EHFS 251755Z AUTO 07012KT 9999 FEW038/// OVC043/// 09/03 Q0997
18:25
V
9 °C 10 km+ 4.300 ft 080° 080° 14 kt METAR EHFS 251725Z AUTO 08014KT 9999 SCT039/// OVC043/// 09/03 Q0997
17:55
V
9 °C 10 km+ - 070° 070° 9 kt METAR EHFS 251655Z AUTO 07009KT 9999 SCT044/// 09/04 Q0997
17:25
V
9 °C 10 km+ - 080° 080° 12 kt METAR EHFS 251625Z AUTO 08012KT 9999 SCT044/// 09/04 Q0997
16:55
V
9 °C 10 km+ - 080° 080° 12 kt METAR EHFS 251555Z AUTO 08012KT 9999 NSC 09/04 Q0997
16:25
V
9 °C 10 km+ - 080° 080° 7 kt METAR EHFS 251525Z AUTO 08007KT 9999 FEW028/// SCT033/// 09/05 Q0997
15:55
V
9 °C 10 km+ - 100° 100° 6 kt METAR EHFS 251455Z AUTO 10006KT 080V140 9999 NSC 09/05 Q0997
15:25
V
9 °C 10 km+ 4.000 ft 140° 140° 8 kt METAR EHFS 251425Z AUTO 14008KT 9999 FEW025/// BKN040/// OVC047/// 09/05 Q0998
14:55
V
8 °C 10 km+ 3.800 ft 160° 160° 9 kt METAR EHFS 251355Z AUTO 16009KT 9999 SCT018/// BKN038/// BKN042/// 08/05 Q0998
14:25
M
9 °C 10 km+ 2.000 ft 160° 160° 8 kt METAR EHFS 251325Z AUTO 16008KT 9999 SCT016/// BKN020/// BKN045/// 09/05 Q0998
13:55
M
8 °C 10 km+ 1.900 ft 190° 190° 12 kt METAR EHFS 251255Z AUTO 19012KT 9999 SCT015/// OVC019/// 08/05 Q0999
13:25
V
8 °C 10 km+ - 170° 170° 13 kt METAR EHFS 251225Z AUTO 17013KT 9999 FEW015/// 08/04 Q0999
12:55
M
7 °C 10 km+ 1.500 ft 170° 170° 14 kt METAR EHFS 251155Z AUTO 17014KT 9999 SCT013/// OVC015/// 07/05 Q0999
12:25
M
7 °C 10 km+ 1.700 ft 170° 170° 14 kt METAR EHFS 251125Z AUTO 17014KT 9999 FEW012/// BKN017/// BKN040/// 07/05 Q0999
11:55
M
7 °C 10 km+ 1.000 ft 160° 160° 12 kt METAR EHFS 251055Z AUTO 16012KT 9999 OVC010/// 07/05 Q1000
11:25
M
7 °C 10 km+ 1.000 ft 160° 160° 9 kt METAR EHFS 251025Z AUTO 16009KT 9999 FEW009/// BKN010/// OVC012/// 07/05 Q1000
10:55
M
6 °C 10 km+ 1.000 ft 150° 150° 7 kt METAR EHFS 250955Z AUTO 15007KT 9999 FEW008/// OVC010/// 06/04 Q1000
10:25
M
6 °C 10 km+ 1.100 ft 190° 190° 11 kt METAR EHFS 250925Z AUTO 19011KT 9999 FEW008/// SCT009/// BKN011/// 06/05 Q1000
09:55
V
6 °C 10 km+ - 180° 180° 12 kt METAR EHFS 250855Z AUTO 18012KT 9999 NSC 06/05 Q1000
09:25
V
6 °C 10 km+ - 190° 190° 8 kt METAR EHFS 250825Z AUTO 19008KT 9999 FEW021/// 06/05 Q1000
08:55
M
6 °C 10 km+ 2.200 ft 180° 180° 12 kt METAR EHFS 250755Z AUTO 18012KT 9999 BKN022/// 06/04 Q1000
08:25
M
6 °C 10 km+ 2.300 ft 200° 200° 13 kt METAR EHFS 250725Z AUTO 20013KT 9999 BKN023/// BKN026/// BKN040/// 06/05 Q0999
07:55
V
6 °C 10 km+ 3.300 ft 200° 200° 12 kt METAR EHFS 250655Z AUTO 20012KT 9999 FEW008/// SCT029/// BKN033/// 06/05 Q0999
07:25
V
6 °C 10 km+ 3.100 ft 210° 210° 12 kt METAR EHFS 250625Z AUTO 21012KT 9999 OVC031/// 06/05 Q0999
06:55
V
6 °C 10 km+ 3.400 ft 210° 210° 13 kt METAR EHFS 250555Z AUTO 21013KT 9999 OVC034/// 06/05 Q0999